| time (UTC) | temp F | wind direction | speed knots | gust knots | rain 1hr in | rain 24hr in | rain mn in | humidity % | barometer mb |
| 20260508004549 | 57 | 346 | 0.0 | 0.0 | 0.00 | 0.10 | 0.10 | 37 | 1007.7 |
| 20260508003048 | 58 | 306 | 0.0 | 0.0 | 0.00 | 0.10 | 0.10 | 36 | 1007.6 |
| 20260508001550 | 58 | 317 | 0.0 | 0.0 | 0.00 | 0.10 | 0.10 | 36 | 1007.2 |
| 20260508001547 | 58 | 313 | 0.0 | 0.0 | 0.00 | 0.10 | 0.10 | 36 | 1007.2 |
| 20260508000050 | 59 | 355 | 0.0 | 0.0 | 0.00 | 0.12 | 0.10 | 35 | 1007.2 |
| 20260507234546 | 59 | 300 | 0.0 | 0.0 | 0.00 | 0.12 | 0.10 | 34 | 1007.0 |
| 20260507234544 | 59 | 307 | 0.0 | 0.0 | 0.00 | 0.12 | 0.10 | 34 | 1007.0 |
| 20260507233047 | 59 | 315 | 0.0 | 0.0 | 0.00 | 0.12 | 0.10 | 33 | 1006.9 |
| 20260507231543 | 60 | 331 | 0.0 | 0.0 | 0.00 | 0.12 | 0.10 | 32 | 1006.7 |
| 20260507230048 | 61 | 331 | 0.0 | 0.0 | 0.00 | 0.13 | 0.10 | 32 | 1006.6 |
| 20260507224543 | 62 | 339 | 0.0 | 0.0 | 0.00 | 0.13 | 0.10 | 31 | 1006.5 |
| 20260507223039 | 62 | 296 | 0.0 | 0.0 | 0.00 | 0.13 | 0.10 | 32 | 1006.3 |
| 20260507221541 | 62 | 298 | 0.0 | 0.0 | 0.00 | 0.13 | 0.10 | 31 | 1006.3 |
| 20260507220037 | 63 | 11 | 0.0 | 0.0 | 0.00 | 0.15 | 0.10 | 31 | 1006.1 |
| 20260507214542 | 64 | 300 | 0.0 | 0.0 | 0.00 | 0.15 | 0.10 | 30 | 1005.9 |
| 20260507213042 | 63 | 339 | 0.0 | 0.0 | 0.00 | 0.15 | 0.10 | 31 | 1005.8 |
| 20260507211536 | 63 | 300 | 0.0 | 0.0 | 0.00 | 0.15 | 0.10 | 31 | 1005.8 |
| 20260507210034 | 64 | 341 | 0.0 | 0.0 | 0.00 | 0.16 | 0.10 | 31 | 1005.7 |
| 20260507204532 | 64 | 360 | 0.0 | 0.0 | 0.00 | 0.16 | 0.10 | 31 | 1005.7 |
| 20260507203039 | 63 | 360 | 0.0 | 0.0 | 0.00 | 0.16 | 0.10 | 31 | 1005.7 |
| 20260507201530 | 63 | 301 | 0.0 | 0.0 | 0.00 | 0.16 | 0.10 | 30 | 1005.7 |
| 20260507200027 | 63 | 323 | 0.0 | 0.0 | 0.00 | 0.16 | 0.10 | 31 | 1005.8 |
| 20260507194526 | 63 | 84 | 0.0 | 0.0 | 0.00 | 0.16 | 0.10 | 29 | 1005.9 |
| 20260507193025 | 63 | 346 | 0.0 | 0.0 | 0.00 | 0.16 | 0.10 | 29 | 1006.0 |
| 20260507191523 | 63 | 342 | 0.0 | 0.0 | 0.00 | 0.16 | 0.10 | 31 | 1006.2 |
| 20260507190021 | 63 | 344 | 0.0 | 0.0 | 0.00 | 0.16 | 0.10 | 31 | 1006.2 |
| 20260507184518 | 63 | 46 | 0.0 | 0.0 | 0.00 | 0.16 | 0.10 | 33 | 1006.2 |
| 20260507183015 | 62 | 355 | 0.0 | 0.0 | 0.00 | 0.16 | 0.10 | 35 | 1006.4 |
| 20260507181514 | 62 | 339 | 0.0 | 0.0 | 0.00 | 0.16 | 0.10 | 35 | 1006.6 |
| 20260507180018 | 62 | 286 | 0.0 | 0.0 | 0.00 | 0.16 | 0.10 | 36 | 1006.7 |
| 20260507174509 | 61 | 339 | 0.0 | 0.0 | 0.00 | 0.16 | 0.10 | 37 | 1006.7 |
| 20260507173019 | 61 | 321 | 0.0 | 0.0 | 0.00 | 0.16 | 0.10 | 38 | 1006.8 |
| 20260507171509 | 61 | 329 | 0.0 | 0.0 | 0.00 | 0.16 | 0.10 | 43 | 1006.8 |
| 20260507170000 | 60 | 302 | 0.0 | 0.0 | 0.00 | 0.16 | 0.10 | 47 | 1006.9 |
| 20260507164605 | 59 | 10 | 0.0 | 0.0 | 0.00 | 0.16 | 0.10 | 51 | 1007.1 |
| 20260507163058 | 60 | 308 | 0.0 | 0.0 | 0.00 | 0.16 | 0.10 | 51 | 1007.3 |
| 20260507161556 | 59 | 286 | 0.0 | 0.0 | 0.00 | 0.16 | 0.10 | 50 | 1007.5 |
| 20260507160054 | 58 | 327 | 0.0 | 0.0 | 0.00 | 0.16 | 0.10 | 55 | 1007.8 |
| 20260507154554 | 58 | 333 | 0.0 | 0.0 | 0.00 | 0.16 | 0.10 | 56 | 1007.8 |
| 20260507153049 | 57 | 294 | 0.0 | 0.0 | 0.00 | 0.16 | 0.10 | 58 | 1007.9 |
| 20260507151549 | 57 | 320 | 0.0 | 0.0 | 0.00 | 0.16 | 0.10 | 58 | 1008.2 |
| 20260507150047 | 57 | 299 | 0.0 | 0.0 | 0.00 | 0.16 | 0.10 | 58 | 1008.1 |
| 20260507144546 | 57 | 331 | 0.0 | 0.0 | 0.00 | 0.16 | 0.10 | 59 | 1008.3 |
| 20260507143045 | 57 | 313 | 0.0 | 0.0 | 0.00 | 0.16 | 0.10 | 58 | 1008.6 |
| 20260507141551 | 56 | 336 | 0.0 | 0.0 | 0.00 | 0.16 | 0.10 | 59 | 1008.5 |
| 20260507140012 | 55 | 302 | 0.0 | 0.0 | 0.00 | 0.16 | 0.10 | 64 | 1008.6 |
| 20260507134512 | 54 | 347 | 0.0 | 0.0 | 0.00 | 0.16 | 0.10 | 70 | 1008.5 |
| 20260507133055 | 53 | 298 | 0.0 | 0.0 | 0.00 | 0.16 | 0.10 | 71 | 1008.6 |
| 20260507131639 | 53 | 355 | 0.0 | 0.0 | 0.00 | 0.16 | 0.10 | 73 | 1008.7 |
| 20260507130005 | 52 | 113 | 0.0 | 0.0 | 0.00 | 0.16 | 0.10 | 80 | 1008.6 |
| 20260507124506 | 51 | 336 | 0.0 | 0.0 | 0.00 | 0.16 | 0.10 | 84 | 1008.8 |
| 20260507123006 | 50 | 338 | 0.0 | 0.0 | 0.00 | 0.16 | 0.10 | 85 | 1008.9 |
| 20260507121503 | 50 | 336 | 0.0 | 0.0 | 0.00 | 0.16 | 0.10 | 87 | 1008.5 |
| 20260507120105 | 50 | 355 | 0.0 | 0.0 | 0.00 | 0.16 | 0.10 | 87 | 1008.5 |
| 20260507114638 | 49 | 343 | 0.0 | 0.0 | 0.00 | 0.16 | 0.10 | 88 | 1008.6 |
| 20260507113100 | 49 | 310 | 0.0 | 0.0 | 0.00 | 0.16 | 0.10 | 88 | 1008.5 |
| 20260507111602 | 49 | 336 | 0.0 | 0.0 | 0.00 | 0.16 | 0.10 | 89 | 1008.4 |
| 20260507110056 | 49 | 350 | 0.0 | 0.0 | 0.01 | 0.16 | 0.10 | 89 | 1008.3 |
| 20260507104554 | 49 | 296 | 0.0 | 0.0 | 0.01 | 0.16 | 0.10 | 89 | 1008.5 |
| 20260507103054 | 49 | 315 | 0.0 | 0.0 | 0.02 | 0.16 | 0.10 | 89 | 1009.0 |
| 20260507101555 | 49 | 317 | 0.0 | 0.0 | 0.03 | 0.16 | 0.10 | 90 | 1008.3 |
| 20260507100050 | 49 | 304 | 0.0 | 0.0 | 0.03 | 0.15 | 0.09 | 90 | 1008.3 |
| 20260507094520 | 49 | 319 | 0.0 | 0.0 | 0.06 | 0.15 | 0.09 | 89 | 1008.2 |
| 20260507093016 | 50 | 300 | 0.0 | 0.0 | 0.06 | 0.14 | 0.08 | 89 | 1008.1 |
| 20260507091547 | 50 | 338 | 0.0 | 0.0 | 0.06 | 0.13 | 0.07 | 88 | 1007.6 |
| 20260507090047 | 51 | 329 | 0.0 | 0.0 | 0.06 | 0.12 | 0.06 | 87 | 1008.2 |
| 20260507084548 | 51 | 329 | 0.0 | 0.0 | 0.03 | 0.09 | 0.03 | 86 | 1008.1 |
| 20260507083036 | 52 | 9 | 0.0 | 0.0 | 0.02 | 0.08 | 0.02 | 86 | 1007.7 |
| 20260507081533 | 53 | 336 | 0.0 | 0.0 | 0.01 | 0.07 | 0.01 | 86 | 1007.6 |
| 20260507080031 | 54 | 308 | 0.0 | 0.0 | 0.00 | 0.06 | 0.00 | 86 | 1007.9 |
| 20260507074559 | 55 | 316 | 0.0 | 0.0 | 0.00 | 0.06 | 0.00 | 86 | 1007.5 |
| 20260507073105 | 55 | 348 | 0.0 | 0.0 | 0.00 | 0.06 | 0.00 | 86 | 1007.2 |
| 20260507071552 | 55 | 342 | 0.0 | 0.0 | 0.00 | 0.06 | 0.00 | 86 | 1006.7 |
| 20260507070050 | 56 | 313 | 0.0 | 0.0 | 0.00 | 0.06 | 0.00 | 85 | 1006.6 |
| 20260507064548 | 56 | 345 | 0.0 | 0.0 | 0.00 | 0.06 | 0.00 | 85 | 1006.9 |
| 20260507063052 | 57 | 315 | 0.0 | 0.0 | 0.00 | 0.06 | 0.00 | 86 | 1006.9 |
| 20260507061543 | 57 | 344 | 0.0 | 0.0 | 0.00 | 0.06 | 0.00 | 86 | 1006.6 |
| 20260507060041 | 58 | 360 | 0.0 | 0.0 | 0.00 | 0.06 | 0.00 | 86 | 1006.9 |
| 20260507054541 | 58 | 355 | 0.0 | 0.0 | 0.00 | 0.06 | 0.00 | 87 | 1007.0 |
| 20260507053039 | 58 | 307 | 0.0 | 0.0 | 0.00 | 0.06 | 0.00 | 88 | 1007.1 |
| 20260507051534 | 58 | 321 | 0.0 | 0.0 | 0.00 | 0.06 | 0.00 | 89 | 1007.0 |
| 20260507050034 | 59 | 331 | 0.0 | 0.0 | 0.00 | 0.06 | 0.00 | 91 | 1006.9 |
| 20260507044530 | 59 | 317 | 0.0 | 0.0 | 0.00 | 0.06 | 0.00 | 93 | 1006.9 |
| 20260507043029 | 59 | 319 | 0.0 | 0.0 | 0.00 | 0.06 | 0.00 | 93 | 1006.7 |
| 20260507041526 | 59 | 355 | 0.0 | 0.0 | 0.00 | 0.06 | 0.00 | 93 | 1006.8 |
| 20260507040024 | 59 | 306 | 0.0 | 0.0 | 0.00 | 0.06 | 0.06 | 93 | 1007.1 |
| 20260507034524 | 59 | 263 | 0.0 | 0.0 | 0.00 | 0.06 | 0.06 | 93 | 1007.1 |
| 20260507033026 | 59 | 288 | 0.0 | 0.0 | 0.00 | 0.06 | 0.06 | 93 | 1006.9 |
| 20260507031553 | 59 | 284 | 0.0 | 0.0 | 0.00 | 0.06 | 0.06 | 93 | 1006.7 |
| 20260507030052 | 59 | 270 | 0.0 | 0.0 | 0.00 | 0.06 | 0.06 | 93 | 1006.6 |
| 20260507024600 | 58 | 290 | 0.0 | 0.0 | 0.00 | 0.06 | 0.06 | 93 | 1006.6 |
| 20260507023050 | 58 | 250 | 0.0 | 0.0 | 0.00 | 0.06 | 0.06 | 93 | 1006.6 |
| 20260507021547 | 58 | 240 | 0.0 | 0.0 | 0.00 | 0.06 | 0.06 | 93 | 1006.6 |
| 20260507020105 | 58 | 289 | 0.0 | 0.0 | 0.00 | 0.06 | 0.06 | 93 | 1006.6 |
| 20260507014523 | 58 | 247 | 0.0 | 0.0 | 0.00 | 0.06 | 0.06 | 93 | 1006.8 |
| 20260507013035 | 58 | 246 | 0.0 | 0.0 | 0.00 | 0.06 | 0.06 | 93 | 1006.9 |
| 20260507011514 | 58 | 268 | 0.0 | 0.0 | 0.00 | 0.06 | 0.06 | 93 | 1007.0 |
| 20260507010018 | 57 | 258 | 0.0 | 0.0 | 0.00 | 0.06 | 0.06 | 93 | 1007.2 |